sensor_id;sensor_type;location;lat;lon;timestamp;P1;durP1;ratioP1;P2;durP2;ratioP2
13698;SDS011;6921;53.642;9.956;2023-06-10T00:01:51;9.73;;;4.78;;
13698;SDS011;6921;53.642;9.956;2023-06-10T00:03:56;9.20;;;5.25;;
13698;SDS011;6921;53.642;9.956;2023-06-10T00:05:59;7.00;;;4.55;;
13698;SDS011;6921;53.642;9.956;2023-06-10T00:08:05;9.35;;;5.40;;
13698;SDS011;6921;53.642;9.956;2023-06-10T00:10:09;10.65;;;5.07;;
13698;SDS011;6921;53.642;9.956;2023-06-10T00:12:15;10.30;;;5.22;;
13698;SDS011;6921;53.642;9.956;2023-06-10T00:14:19;8.93;;;5.00;;
13698;SDS011;6921;53.642;9.956;2023-06-10T00:16:22;8.48;;;5.07;;
13698;SDS011;6921;53.642;9.956;2023-06-10T00:18:26;7.72;;;4.35;;
13698;SDS011;6921;53.642;9.956;2023-06-10T00:20:32;6.80;;;4.10;;
13698;SDS011;6921;53.642;9.956;2023-06-10T00:22:40;7.63;;;4.60;;
13698;SDS011;6921;53.642;9.956;2023-06-10T00:24:47;7.45;;;4.05;;
13698;SDS011;6921;53.642;9.956;2023-06-10T00:26:50;6.30;;;3.72;;
13698;SDS011;6921;53.642;9.956;2023-06-10T00:28:59;7.25;;;4.15;;
13698;SDS011;6921;53.642;9.956;2023-06-10T00:31:03;7.53;;;4.25;;
13698;SDS011;6921;53.642;9.956;2023-06-10T00:33:07;10.25;;;4.32;;
13698;SDS011;6921;53.642;9.956;2023-06-10T00:35:13;6.72;;;4.20;;
13698;SDS011;6921;53.642;9.956;2023-06-10T00:37:17;10.73;;;4.07;;
13698;SDS011;6921;53.642;9.956;2023-06-10T00:39:20;7.57;;;4.10;;
13698;SDS011;6921;53.642;9.956;2023-06-10T00:41:26;8.45;;;4.22;;
13698;SDS011;6921;53.642;9.956;2023-06-10T00:43:29;8.07;;;3.67;;
13698;SDS011;6921;53.642;9.956;2023-06-10T00:45:36;6.47;;;3.65;;
13698;SDS011;6921;53.642;9.956;2023-06-10T00:47:39;7.88;;;4.25;;
13698;SDS011;6921;53.642;9.956;2023-06-10T00:49:42;7.03;;;3.83;;
13698;SDS011;6921;53.642;9.956;2023-06-10T00:51:46;6.00;;;3.67;;
13698;SDS011;6921;53.642;9.956;2023-06-10T00:53:51;8.00;;;4.10;;
13698;SDS011;6921;53.642;9.956;2023-06-10T00:55:55;5.30;;;3.72;;
13698;SDS011;6921;53.642;9.956;2023-06-10T00:57:58;6.57;;;3.88;;
13698;SDS011;6921;53.642;9.956;2023-06-10T01:00:02;7.75;;;3.70;;
13698;SDS011;6921;53.642;9.956;2023-06-10T01:02:11;6.45;;;4.15;;
13698;SDS011;6921;53.642;9.956;2023-06-10T01:04:14;7.60;;;3.47;;
13698;SDS011;6921;53.642;9.956;2023-06-10T01:06:24;6.32;;;3.92;;
13698;SDS011;6921;53.642;9.956;2023-06-10T01:08:40;5.40;;;3.83;;
13698;SDS011;6921;53.642;9.956;2023-06-10T01:10:50;7.40;;;3.58;;
13698;SDS011;6921;53.642;9.956;2023-06-10T01:12:58;6.00;;;3.72;;
13698;SDS011;6921;53.642;9.956;2023-06-10T01:15:04;6.07;;;3.25;;
13698;SDS011;6921;53.642;9.956;2023-06-10T01:17:11;6.75;;;3.50;;
13698;SDS011;6921;53.642;9.956;2023-06-10T01:19:18;6.60;;;3.60;;
13698;SDS011;6921;53.642;9.956;2023-06-10T01:21:23;6.35;;;3.60;;
13698;SDS011;6921;53.642;9.956;2023-06-10T01:23:27;5.55;;;3.50;;
13698;SDS011;6921;53.642;9.956;2023-06-10T01:25:30;6.15;;;3.80;;
13698;SDS011;6921;53.642;9.956;2023-06-10T01:27:37;6.35;;;3.13;;
13698;SDS011;6921;53.642;9.956;2023-06-10T01:29:43;5.78;;;3.33;;
13698;SDS011;6921;53.642;9.956;2023-06-10T01:31:55;5.55;;;3.20;;
13698;SDS011;6921;53.642;9.956;2023-06-10T01:34:07;11.25;;;3.55;;
13698;SDS011;6921;53.642;9.956;2023-06-10T01:36:13;4.28;;;3.10;;
13698;SDS011;6921;53.642;9.956;2023-06-10T01:38:21;4.80;;;3.25;;
13698;SDS011;6921;53.642;9.956;2023-06-10T01:40:25;6.38;;;3.17;;
13698;SDS011;6921;53.642;9.956;2023-06-10T01:42:32;6.93;;;3.25;;
13698;SDS011;6921;53.642;9.956;2023-06-10T01:44:38;4.82;;;3.10;;
13698;SDS011;6921;53.642;9.956;2023-06-10T01:46:43;5.25;;;3.03;;
13698;SDS011;6921;53.642;9.956;2023-06-10T01:48:47;8.90;;;3.25;;
13698;SDS011;6921;53.642;9.956;2023-06-10T01:50:52;6.20;;;3.20;;
13698;SDS011;6921;53.642;9.956;2023-06-10T01:52:59;4.88;;;3.00;;
13698;SDS011;6921;53.642;9.956;2023-06-10T01:55:05;5.10;;;2.97;;
13698;SDS011;6921;53.642;9.956;2023-06-10T01:57:10;4.88;;;3.00;;
13698;SDS011;6921;53.642;9.956;2023-06-10T01:59:14;6.47;;;2.90;;
13698;SDS011;6921;53.642;9.956;2023-06-10T02:01:17;4.63;;;3.05;;
13698;SDS011;6921;53.642;9.956;2023-06-10T02:03:22;5.97;;;3.30;;
13698;SDS011;6921;53.642;9.956;2023-06-10T02:05:28;7.25;;;3.00;;
13698;SDS011;6921;53.642;9.956;2023-06-10T02:07:32;7.35;;;3.63;;
13698;SDS011;6921;53.642;9.956;2023-06-10T02:09:36;6.22;;;2.95;;
13698;SDS011;6921;53.642;9.956;2023-06-10T02:11:40;4.40;;;3.00;;
13698;SDS011;6921;53.642;9.956;2023-06-10T02:13:43;6.88;;;3.20;;
13698;SDS011;6921;53.642;9.956;2023-06-10T02:15:46;5.15;;;3.05;;
13698;SDS011;6921;53.642;9.956;2023-06-10T02:17:49;4.63;;;3.17;;
13698;SDS011;6921;53.642;9.956;2023-06-10T02:19:53;6.38;;;2.97;;
13698;SDS011;6921;53.642;9.956;2023-06-10T02:21:58;4.45;;;2.88;;
13698;SDS011;6921;53.642;9.956;2023-06-10T02:24:02;5.78;;;2.92;;
13698;SDS011;6921;53.642;9.956;2023-06-10T02:26:06;7.35;;;2.97;;
13698;SDS011;6921;53.642;9.956;2023-06-10T02:28:11;5.38;;;2.85;;
13698;SDS011;6921;53.642;9.956;2023-06-10T02:30:14;5.38;;;2.80;;
13698;SDS011;6921;53.642;9.956;2023-06-10T02:32:18;5.40;;;2.78;;
13698;SDS011;6921;53.642;9.956;2023-06-10T02:34:21;3.92;;;2.72;;
13698;SDS011;6921;53.642;9.956;2023-06-10T02:36:24;7.22;;;3.28;;
13698;SDS011;6921;53.642;9.956;2023-06-10T02:38:28;5.40;;;3.08;;
13698;SDS011;6921;53.642;9.956;2023-06-10T02:40:32;4.63;;;2.83;;
13698;SDS011;6921;53.642;9.956;2023-06-10T02:42:38;6.57;;;2.70;;
13698;SDS011;6921;53.642;9.956;2023-06-10T02:44:43;5.45;;;3.08;;
13698;SDS011;6921;53.642;9.956;2023-06-10T02:46:46;6.53;;;3.08;;
13698;SDS011;6921;53.642;9.956;2023-06-10T02:48:49;5.68;;;3.17;;
13698;SDS011;6921;53.642;9.956;2023-06-10T02:50:54;5.88;;;2.78;;
13698;SDS011;6921;53.642;9.956;2023-06-10T02:52:59;6.30;;;3.10;;
13698;SDS011;6921;53.642;9.956;2023-06-10T02:55:04;5.47;;;2.95;;
13698;SDS011;6921;53.642;9.956;2023-06-10T02:57:08;8.63;;;2.63;;
13698;SDS011;6921;53.642;9.956;2023-06-10T02:59:11;5.55;;;2.75;;
13698;SDS011;6921;53.642;9.956;2023-06-10T03:01:16;7.78;;;4.50;;
13698;SDS011;6921;53.642;9.956;2023-06-10T03:03:19;6.25;;;3.05;;
13698;SDS011;6921;53.642;9.956;2023-06-10T03:05:24;7.00;;;2.88;;
13698;SDS011;6921;53.642;9.956;2023-06-10T03:07:28;4.00;;;2.72;;
13698;SDS011;6921;53.642;9.956;2023-06-10T03:09:33;5.43;;;2.92;;
13698;SDS011;6921;53.642;9.956;2023-06-10T03:11:36;4.13;;;2.72;;
13698;SDS011;6921;53.642;9.956;2023-06-10T03:13:41;5.28;;;3.08;;
13698;SDS011;6921;53.642;9.956;2023-06-10T03:15:44;6.15;;;3.10;;
13698;SDS011;6921;53.642;9.956;2023-06-10T03:17:49;5.45;;;3.00;;
13698;SDS011;6921;53.642;9.956;2023-06-10T03:19:52;4.13;;;2.60;;
13698;SDS011;6921;53.642;9.956;2023-06-10T03:21:57;6.07;;;2.83;;
13698;SDS011;6921;53.642;9.956;2023-06-10T03:24:10;7.72;;;3.42;;
13698;SDS011;6921;53.642;9.956;2023-06-10T03:26:14;5.28;;;3.63;;
13698;SDS011;6921;53.642;9.956;2023-06-10T03:28:17;6.60;;;2.95;;
13698;SDS011;6921;53.642;9.956;2023-06-10T03:30:21;7.13;;;3.17;;
13698;SDS011;6921;53.642;9.956;2023-06-10T03:32:27;6.80;;;2.95;;
13698;SDS011;6921;53.642;9.956;2023-06-10T03:34:32;5.78;;;3.10;;
13698;SDS011;6921;53.642;9.956;2023-06-10T03:36:37;5.65;;;3.08;;
13698;SDS011;6921;53.642;9.956;2023-06-10T03:38:46;7.78;;;3.60;;
13698;SDS011;6921;53.642;9.956;2023-06-10T03:40:52;9.45;;;3.55;;
13698;SDS011;6921;53.642;9.956;2023-06-10T03:42:55;4.82;;;2.72;;
13698;SDS011;6921;53.642;9.956;2023-06-10T03:44:59;6.38;;;2.70;;
13698;SDS011;6921;53.642;9.956;2023-06-10T03:47:03;6.65;;;3.20;;
13698;SDS011;6921;53.642;9.956;2023-06-10T03:49:07;4.82;;;2.97;;
13698;SDS011;6921;53.642;9.956;2023-06-10T03:51:12;5.25;;;3.00;;
13698;SDS011;6921;53.642;9.956;2023-06-10T03:53:15;7.10;;;3.15;;
13698;SDS011;6921;53.642;9.956;2023-06-10T03:55:18;3.83;;;2.67;;
13698;SDS011;6921;53.642;9.956;2023-06-10T03:57:23;7.68;;;2.90;;
13698;SDS011;6921;53.642;9.956;2023-06-10T03:59:26;7.50;;;2.88;;
13698;SDS011;6921;53.642;9.956;2023-06-10T04:01:30;5.50;;;3.05;;
13698;SDS011;6921;53.642;9.956;2023-06-10T04:03:34;7.57;;;3.15;;
13698;SDS011;6921;53.642;9.956;2023-06-10T04:05:38;5.93;;;2.55;;
13698;SDS011;6921;53.642;9.956;2023-06-10T04:07:43;6.88;;;3.00;;
13698;SDS011;6921;53.642;9.956;2023-06-10T04:09:47;4.85;;;2.63;;
13698;SDS011;6921;53.642;9.956;2023-06-10T04:11:51;5.03;;;2.65;;
13698;SDS011;6921;53.642;9.956;2023-06-10T04:13:55;5.03;;;2.58;;
13698;SDS011;6921;53.642;9.956;2023-06-10T04:15:58;5.43;;;2.55;;
13698;SDS011;6921;53.642;9.956;2023-06-10T04:18:03;5.30;;;2.90;;
13698;SDS011;6921;53.642;9.956;2023-06-10T04:20:07;4.05;;;2.50;;
13698;SDS011;6921;53.642;9.956;2023-06-10T04:22:11;4.72;;;2.80;;
13698;SDS011;6921;53.642;9.956;2023-06-10T04:24:16;4.88;;;2.50;;
13698;SDS011;6921;53.642;9.956;2023-06-10T04:26:20;5.85;;;2.92;;
13698;SDS011;6921;53.642;9.956;2023-06-10T04:28:24;5.07;;;2.95;;
13698;SDS011;6921;53.642;9.956;2023-06-10T04:30:28;3.90;;;2.67;;
13698;SDS011;6921;53.642;9.956;2023-06-10T04:32:32;6.00;;;2.85;;
13698;SDS011;6921;53.642;9.956;2023-06-10T04:34:35;4.43;;;2.70;;
13698;SDS011;6921;53.642;9.956;2023-06-10T04:36:40;7.07;;;2.90;;
13698;SDS011;6921;53.642;9.956;2023-06-10T04:38:44;7.32;;;2.92;;
13698;SDS011;6921;53.642;9.956;2023-06-10T04:40:49;7.85;;;2.58;;
13698;SDS011;6921;53.642;9.956;2023-06-10T04:42:53;9.40;;;3.47;;
13698;SDS011;6921;53.642;9.956;2023-06-10T04:44:56;6.03;;;2.83;;
13698;SDS011;6921;53.642;9.956;2023-06-10T04:46:59;4.65;;;2.85;;
13698;SDS011;6921;53.642;9.956;2023-06-10T04:49:03;5.03;;;2.30;;
13698;SDS011;6921;53.642;9.956;2023-06-10T04:51:07;6.95;;;2.85;;
13698;SDS011;6921;53.642;9.956;2023-06-10T04:53:10;6.93;;;2.45;;
13698;SDS011;6921;53.642;9.956;2023-06-10T04:55:13;7.60;;;3.15;;
13698;SDS011;6921;53.642;9.956;2023-06-10T04:57:18;12.35;;;3.15;;
13698;SDS011;6921;53.642;9.956;2023-06-10T04:59:23;4.90;;;2.80;;
13698;SDS011;6921;53.642;9.956;2023-06-10T05:01:26;7.90;;;3.10;;
13698;SDS011;6921;53.642;9.956;2023-06-10T05:03:30;5.70;;;2.38;;
13698;SDS011;6921;53.642;9.956;2023-06-10T05:05:34;5.43;;;2.58;;
13698;SDS011;6921;53.642;9.956;2023-06-10T05:07:38;4.57;;;2.90;;
13698;SDS011;6921;53.642;9.956;2023-06-10T05:09:44;4.10;;;2.40;;
13698;SDS011;6921;53.642;9.956;2023-06-10T05:11:51;10.05;;;2.75;;
13698;SDS011;6921;53.642;9.956;2023-06-10T05:16:25;6.80;;;2.60;;
13698;SDS011;6921;53.642;9.956;2023-06-10T05:18:37;6.72;;;2.70;;
13698;SDS011;6921;53.642;9.956;2023-06-10T05:20:40;6.00;;;2.47;;
13698;SDS011;6921;53.642;9.956;2023-06-10T05:22:46;6.30;;;2.40;;
13698;SDS011;6921;53.642;9.956;2023-06-10T05:24:50;3.50;;;1.95;;
13698;SDS011;6921;53.642;9.956;2023-06-10T05:26:53;7.05;;;2.30;;
13698;SDS011;6921;53.642;9.956;2023-06-10T05:28:58;5.22;;;2.30;;
13698;SDS011;6921;53.642;9.956;2023-06-10T05:31:01;7.47;;;2.20;;
13698;SDS011;6921;53.642;9.956;2023-06-10T05:33:06;6.60;;;2.38;;
13698;SDS011;6921;53.642;9.956;2023-06-10T05:35:12;4.65;;;2.20;;
13698;SDS011;6921;53.642;9.956;2023-06-10T05:37:16;5.30;;;2.42;;
13698;SDS011;6921;53.642;9.956;2023-06-10T05:39:19;5.60;;;2.42;;
13698;SDS011;6921;53.642;9.956;2023-06-10T05:41:23;10.77;;;3.30;;
13698;SDS011;6921;53.642;9.956;2023-06-10T05:43:26;5.72;;;2.10;;
13698;SDS011;6921;53.642;9.956;2023-06-10T05:45:30;4.32;;;2.00;;
13698;SDS011;6921;53.642;9.956;2023-06-10T05:47:33;4.95;;;2.47;;
13698;SDS011;6921;53.642;9.956;2023-06-10T05:49:39;4.55;;;2.20;;
13698;SDS011;6921;53.642;9.956;2023-06-10T05:51:45;6.93;;;2.40;;
13698;SDS011;6921;53.642;9.956;2023-06-10T05:53:48;5.63;;;2.10;;
13698;SDS011;6921;53.642;9.956;2023-06-10T05:55:54;4.18;;;2.25;;
13698;SDS011;6921;53.642;9.956;2023-06-10T05:57:58;7.15;;;2.22;;
13698;SDS011;6921;53.642;9.956;2023-06-10T06:00:03;4.63;;;2.03;;
13698;SDS011;6921;53.642;9.956;2023-06-10T06:02:07;6.47;;;2.30;;
13698;SDS011;6921;53.642;9.956;2023-06-10T06:04:11;4.72;;;2.05;;
13698;SDS011;6921;53.642;9.956;2023-06-10T06:06:16;4.82;;;2.15;;
13698;SDS011;6921;53.642;9.956;2023-06-10T06:08:21;7.00;;;2.20;;
13698;SDS011;6921;53.642;9.956;2023-06-10T06:10:27;3.58;;;1.90;;
13698;SDS011;6921;53.642;9.956;2023-06-10T06:12:31;3.80;;;1.90;;
13698;SDS011;6921;53.642;9.956;2023-06-10T06:14:36;3.83;;;1.80;;
13698;SDS011;6921;53.642;9.956;2023-06-10T06:16:40;7.32;;;2.30;;
13698;SDS011;6921;53.642;9.956;2023-06-10T06:18:43;4.38;;;2.00;;
13698;SDS011;6921;53.642;9.956;2023-06-10T06:20:47;6.85;;;2.40;;
13698;SDS011;6921;53.642;9.956;2023-06-10T06:22:52;5.13;;;2.70;;
13698;SDS011;6921;53.642;9.956;2023-06-10T06:24:56;5.30;;;1.90;;
13698;SDS011;6921;53.642;9.956;2023-06-10T06:27:00;2.47;;;1.75;;
13698;SDS011;6921;53.642;9.956;2023-06-10T06:29:03;7.13;;;2.10;;
13698;SDS011;6921;53.642;9.956;2023-06-10T06:31:07;6.05;;;2.22;;
13698;SDS011;6921;53.642;9.956;2023-06-10T06:33:10;5.63;;;1.90;;
13698;SDS011;6921;53.642;9.956;2023-06-10T06:35:14;6.72;;;2.30;;
13698;SDS011;6921;53.642;9.956;2023-06-10T06:37:17;4.93;;;2.25;;
13698;SDS011;6921;53.642;9.956;2023-06-10T06:39:23;5.75;;;2.42;;
13698;SDS011;6921;53.642;9.956;2023-06-10T06:41:40;4.57;;;1.90;;
13698;SDS011;6921;53.642;9.956;2023-06-10T06:43:44;6.15;;;2.03;;
13698;SDS011;6921;53.642;9.956;2023-06-10T06:45:49;6.70;;;2.17;;
13698;SDS011;6921;53.642;9.956;2023-06-10T06:47:52;6.72;;;2.20;;
13698;SDS011;6921;53.642;9.956;2023-06-10T06:49:57;4.65;;;2.00;;
13698;SDS011;6921;53.642;9.956;2023-06-10T06:52:00;5.80;;;2.60;;
13698;SDS011;6921;53.642;9.956;2023-06-10T06:54:04;6.00;;;2.33;;
13698;SDS011;6921;53.642;9.956;2023-06-10T06:56:12;4.93;;;2.20;;
13698;SDS011;6921;53.642;9.956;2023-06-10T06:58:16;3.83;;;1.90;;
13698;SDS011;6921;53.642;9.956;2023-06-10T07:00:19;7.60;;;2.42;;
13698;SDS011;6921;53.642;9.956;2023-06-10T07:02:23;5.13;;;2.30;;
13698;SDS011;6921;53.642;9.956;2023-06-10T07:04:27;5.70;;;2.50;;
13698;SDS011;6921;53.642;9.956;2023-06-10T07:06:31;5.97;;;2.22;;
13698;SDS011;6921;53.642;9.956;2023-06-10T07:08:37;5.13;;;2.30;;
13698;SDS011;6921;53.642;9.956;2023-06-10T07:10:40;5.82;;;2.47;;
13698;SDS011;6921;53.642;9.956;2023-06-10T07:12:45;4.03;;;2.28;;
13698;SDS011;6921;53.642;9.956;2023-06-10T07:14:49;7.25;;;2.40;;
13698;SDS011;6921;53.642;9.956;2023-06-10T07:16:56;7.95;;;3.33;;
13698;SDS011;6921;53.642;9.956;2023-06-10T07:19:00;6.13;;;2.58;;
13698;SDS011;6921;53.642;9.956;2023-06-10T07:21:06;5.38;;;2.40;;
13698;SDS011;6921;53.642;9.956;2023-06-10T07:23:10;5.90;;;2.25;;
13698;SDS011;6921;53.642;9.956;2023-06-10T07:25:14;9.32;;;2.80;;
13698;SDS011;6921;53.642;9.956;2023-06-10T07:27:18;6.35;;;2.47;;
13698;SDS011;6921;53.642;9.956;2023-06-10T07:29:23;5.38;;;2.58;;
13698;SDS011;6921;53.642;9.956;2023-06-10T07:31:27;3.85;;;2.15;;
13698;SDS011;6921;53.642;9.956;2023-06-10T07:33:32;5.55;;;2.80;;
13698;SDS011;6921;53.642;9.956;2023-06-10T07:35:35;5.13;;;2.38;;
13698;SDS011;6921;53.642;9.956;2023-06-10T07:37:39;7.18;;;2.90;;
13698;SDS011;6921;53.642;9.956;2023-06-10T07:39:43;7.38;;;2.75;;
13698;SDS011;6921;53.642;9.956;2023-06-10T07:41:46;6.07;;;2.75;;
13698;SDS011;6921;53.642;9.956;2023-06-10T07:43:50;6.78;;;2.88;;
13698;SDS011;6921;53.642;9.956;2023-06-10T07:46:00;5.78;;;2.60;;
13698;SDS011;6921;53.642;9.956;2023-06-10T07:48:16;6.53;;;2.67;;
13698;SDS011;6921;53.642;9.956;2023-06-10T07:50:20;4.95;;;2.75;;
13698;SDS011;6921;53.642;9.956;2023-06-10T07:52:25;5.60;;;2.30;;
13698;SDS011;6921;53.642;9.956;2023-06-10T07:54:29;5.60;;;2.25;;
13698;SDS011;6921;53.642;9.956;2023-06-10T07:56:33;6.32;;;2.53;;
13698;SDS011;6921;53.642;9.956;2023-06-10T07:58:37;6.13;;;2.63;;
13698;SDS011;6921;53.642;9.956;2023-06-10T08:00:40;5.35;;;2.50;;
13698;SDS011;6921;53.642;9.956;2023-06-10T08:02:45;6.68;;;2.60;;
13698;SDS011;6921;53.642;9.956;2023-06-10T08:04:49;4.25;;;2.75;;
13698;SDS011;6921;53.642;9.956;2023-06-10T08:06:54;5.50;;;2.47;;
13698;SDS011;6921;53.642;9.956;2023-06-10T08:08:57;5.10;;;2.47;;
13698;SDS011;6921;53.642;9.956;2023-06-10T08:11:02;5.90;;;2.97;;
13698;SDS011;6921;53.642;9.956;2023-06-10T08:13:07;7.75;;;2.80;;
13698;SDS011;6921;53.642;9.956;2023-06-10T08:15:13;4.75;;;2.75;;
13698;SDS011;6921;53.642;9.956;2023-06-10T08:17:16;7.13;;;2.60;;
13698;SDS011;6921;53.642;9.956;2023-06-10T08:19:21;4.22;;;2.20;;
13698;SDS011;6921;53.642;9.956;2023-06-10T08:21:27;6.95;;;2.65;;
13698;SDS011;6921;53.642;9.956;2023-06-10T08:23:34;5.20;;;2.40;;
13698;SDS011;6921;53.642;9.956;2023-06-10T08:25:37;7.05;;;2.78;;
13698;SDS011;6921;53.642;9.956;2023-06-10T08:27:40;6.35;;;2.50;;
13698;SDS011;6921;53.642;9.956;2023-06-10T08:29:44;6.53;;;2.47;;
13698;SDS011;6921;53.642;9.956;2023-06-10T08:31:47;8.05;;;2.97;;
13698;SDS011;6921;53.642;9.956;2023-06-10T08:33:53;7.93;;;2.83;;
13698;SDS011;6921;53.642;9.956;2023-06-10T08:35:59;4.53;;;2.17;;
13698;SDS011;6921;53.642;9.956;2023-06-10T08:38:05;4.85;;;2.58;;
13698;SDS011;6921;53.642;9.956;2023-06-10T08:40:09;5.20;;;2.83;;
13698;SDS011;6921;53.642;9.956;2023-06-10T08:42:15;4.38;;;2.47;;
13698;SDS011;6921;53.642;9.956;2023-06-10T08:44:27;4.72;;;2.53;;
13698;SDS011;6921;53.642;9.956;2023-06-10T08:46:31;4.72;;;2.85;;
13698;SDS011;6921;53.642;9.956;2023-06-10T08:48:37;7.38;;;3.13;;
13698;SDS011;6921;53.642;9.956;2023-06-10T08:50:44;5.15;;;2.70;;
13698;SDS011;6921;53.642;9.956;2023-06-10T08:52:54;4.78;;;2.80;;
13698;SDS011;6921;53.642;9.956;2023-06-10T08:55:02;5.82;;;2.83;;
13698;SDS011;6921;53.642;9.956;2023-06-10T08:57:07;3.95;;;2.90;;
13698;SDS011;6921;53.642;9.956;2023-06-10T08:59:11;4.80;;;2.70;;
13698;SDS011;6921;53.642;9.956;2023-06-10T09:01:14;7.28;;;3.17;;
13698;SDS011;6921;53.642;9.956;2023-06-10T09:03:19;8.50;;;3.53;;
13698;SDS011;6921;53.642;9.956;2023-06-10T09:05:25;6.50;;;3.33;;
13698;SDS011;6921;53.642;9.956;2023-06-10T09:07:32;5.13;;;2.88;;
13698;SDS011;6921;53.642;9.956;2023-06-10T09:09:38;5.97;;;3.05;;
13698;SDS011;6921;53.642;9.956;2023-06-10T09:11:43;8.70;;;2.97;;
13698;SDS011;6921;53.642;9.956;2023-06-10T09:13:47;4.82;;;2.80;;
13698;SDS011;6921;53.642;9.956;2023-06-10T09:15:53;5.47;;;2.67;;
13698;SDS011;6921;53.642;9.956;2023-06-10T09:18:01;5.20;;;3.05;;
13698;SDS011;6921;53.642;9.956;2023-06-10T09:20:06;12.77;;;3.60;;
13698;SDS011;6921;53.642;9.956;2023-06-10T09:22:11;7.97;;;2.97;;
13698;SDS011;6921;53.642;9.956;2023-06-10T09:24:15;4.35;;;2.90;;
13698;SDS011;6921;53.642;9.956;2023-06-10T09:26:20;9.82;;;3.35;;
13698;SDS011;6921;53.642;9.956;2023-06-10T09:28:23;6.47;;;3.05;;
13698;SDS011;6921;53.642;9.956;2023-06-10T09:30:27;6.28;;;3.35;;
13698;SDS011;6921;53.642;9.956;2023-06-10T09:32:31;8.57;;;3.28;;
13698;SDS011;6921;53.642;9.956;2023-06-10T09:34:41;7.15;;;3.03;;
13698;SDS011;6921;53.642;9.956;2023-06-10T09:36:45;8.20;;;3.20;;
13698;SDS011;6921;53.642;9.956;2023-06-10T09:38:49;7.15;;;3.55;;
13698;SDS011;6921;53.642;9.956;2023-06-10T09:40:53;6.05;;;3.30;;
13698;SDS011;6921;53.642;9.956;2023-06-10T09:42:59;6.88;;;2.72;;
13698;SDS011;6921;53.642;9.956;2023-06-10T09:45:05;9.07;;;3.70;;
13698;SDS011;6921;53.642;9.956;2023-06-10T09:47:09;5.80;;;3.20;;
13698;SDS011;6921;53.642;9.956;2023-06-10T09:49:23;4.88;;;2.97;;
13698;SDS011;6921;53.642;9.956;2023-06-10T09:51:32;6.65;;;3.38;;
13698;SDS011;6921;53.642;9.956;2023-06-10T09:53:36;7.50;;;3.10;;
13698;SDS011;6921;53.642;9.956;2023-06-10T09:55:41;6.80;;;3.17;;
13698;SDS011;6921;53.642;9.956;2023-06-10T09:57:45;9.25;;;3.60;;
13698;SDS011;6921;53.642;9.956;2023-06-10T09:59:53;6.13;;;3.20;;
13698;SDS011;6921;53.642;9.956;2023-06-10T10:01:57;4.97;;;3.00;;
13698;SDS011;6921;53.642;9.956;2023-06-10T10:04:02;7.45;;;3.03;;
13698;SDS011;6921;53.642;9.956;2023-06-10T10:06:07;10.65;;;3.80;;
13698;SDS011;6921;53.642;9.956;2023-06-10T10:08:12;7.90;;;3.40;;
13698;SDS011;6921;53.642;9.956;2023-06-10T10:10:16;7.60;;;3.30;;
13698;SDS011;6921;53.642;9.956;2023-06-10T10:12:21;7.18;;;3.20;;
13698;SDS011;6921;53.642;9.956;2023-06-10T10:14:25;6.63;;;3.45;;
13698;SDS011;6921;53.642;9.956;2023-06-10T10:16:32;7.43;;;3.60;;
13698;SDS011;6921;53.642;9.956;2023-06-10T10:18:41;7.90;;;3.10;;
13698;SDS011;6921;53.642;9.956;2023-06-10T10:20:49;10.30;;;3.78;;
13698;SDS011;6921;53.642;9.956;2023-06-10T10:22:56;7.80;;;3.58;;
13698;SDS011;6921;53.642;9.956;2023-06-10T10:25:01;6.97;;;2.90;;
13698;SDS011;6921;53.642;9.956;2023-06-10T10:27:11;5.38;;;3.10;;
13698;SDS011;6921;53.642;9.956;2023-06-10T10:29:20;7.32;;;3.08;;
13698;SDS011;6921;53.642;9.956;2023-06-10T10:31:27;7.65;;;3.67;;
13698;SDS011;6921;53.642;9.956;2023-06-10T10:33:33;9.18;;;3.45;;
13698;SDS011;6921;53.642;9.956;2023-06-10T10:35:45;7.38;;;3.53;;
13698;SDS011;6921;53.642;9.956;2023-06-10T10:37:49;8.77;;;3.63;;
13698;SDS011;6921;53.642;9.956;2023-06-10T10:39:55;6.82;;;3.40;;
13698;SDS011;6921;53.642;9.956;2023-06-10T10:41:59;6.15;;;3.20;;
13698;SDS011;6921;53.642;9.956;2023-06-10T10:44:05;8.45;;;3.90;;
13698;SDS011;6921;53.642;9.956;2023-06-10T10:46:11;6.75;;;3.42;;
13698;SDS011;6921;53.642;9.956;2023-06-10T10:48:15;5.15;;;3.40;;
13698;SDS011;6921;53.642;9.956;2023-06-10T10:50:20;7.65;;;3.58;;
13698;SDS011;6921;53.642;9.956;2023-06-10T10:52:24;10.65;;;3.80;;
13698;SDS011;6921;53.642;9.956;2023-06-10T10:54:28;6.18;;;3.80;;
13698;SDS011;6921;53.642;9.956;2023-06-10T10:56:36;7.57;;;3.60;;
13698;SDS011;6921;53.642;9.956;2023-06-10T11:01:10;7.55;;;3.83;;
13698;SDS011;6921;53.642;9.956;2023-06-10T11:03:14;8.18;;;3.60;;
13698;SDS011;6921;53.642;9.956;2023-06-10T11:05:30;5.80;;;3.40;;
13698;SDS011;6921;53.642;9.956;2023-06-10T11:07:38;6.70;;;3.72;;
13698;SDS011;6921;53.642;9.956;2023-06-10T11:09:57;4.20;;;3.08;;
13698;SDS011;6921;53.642;9.956;2023-06-10T11:12:02;6.43;;;3.38;;
13698;SDS011;6921;53.642;9.956;2023-06-10T11:14:12;4.95;;;3.28;;
13698;SDS011;6921;53.642;9.956;2023-06-10T11:16:18;6.32;;;3.70;;
13698;SDS011;6921;53.642;9.956;2023-06-10T11:18:23;5.55;;;3.20;;
13698;SDS011;6921;53.642;9.956;2023-06-10T11:22:59;5.18;;;3.47;;
13698;SDS011;6921;53.642;9.956;2023-06-10T11:25:04;10.00;;;3.42;;
13698;SDS011;6921;53.642;9.956;2023-06-10T11:27:20;3.95;;;3.30;;
13698;SDS011;6921;53.642;9.956;2023-06-10T11:29:28;11.70;;;4.30;;
13698;SDS011;6921;53.642;9.956;2023-06-10T11:31:33;8.52;;;3.85;;
13698;SDS011;6921;53.642;9.956;2023-06-10T11:33:40;7.82;;;3.58;;
13698;SDS011;6921;53.642;9.956;2023-06-10T11:35:46;8.45;;;3.55;;
13698;SDS011;6921;53.642;9.956;2023-06-10T11:37:50;7.40;;;3.50;;
13698;SDS011;6921;53.642;9.956;2023-06-10T11:39:55;9.63;;;3.80;;
13698;SDS011;6921;53.642;9.956;2023-06-10T11:41:59;6.38;;;3.53;;
13698;SDS011;6921;53.642;9.956;2023-06-10T11:44:04;6.22;;;3.80;;
13698;SDS011;6921;53.642;9.956;2023-06-10T11:46:10;9.65;;;3.78;;
13698;SDS011;6921;53.642;9.956;2023-06-10T11:48:13;6.78;;;3.78;;
13698;SDS011;6921;53.642;9.956;2023-06-10T11:50:27;7.32;;;3.72;;
13698;SDS011;6921;53.642;9.956;2023-06-10T11:52:35;6.15;;;3.67;;
13698;SDS011;6921;53.642;9.956;2023-06-10T11:54:42;10.55;;;4.40;;
13698;SDS011;6921;53.642;9.956;2023-06-10T11:56:46;10.00;;;4.13;;
13698;SDS011;6921;53.642;9.956;2023-06-10T11:58:52;9.10;;;4.00;;
13698;SDS011;6921;53.642;9.956;2023-06-10T12:00:57;7.82;;;3.80;;
13698;SDS011;6921;53.642;9.956;2023-06-10T12:03:03;7.75;;;3.72;;
13698;SDS011;6921;53.642;9.956;2023-06-10T12:05:10;5.53;;;3.58;;
13698;SDS011;6921;53.642;9.956;2023-06-10T12:07:16;7.40;;;3.70;;
13698;SDS011;6921;53.642;9.956;2023-06-10T12:09:23;6.75;;;3.88;;
13698;SDS011;6921;53.642;9.956;2023-06-10T12:11:29;10.70;;;3.63;;
13698;SDS011;6921;53.642;9.956;2023-06-10T12:13:32;7.70;;;4.15;;
13698;SDS011;6921;53.642;9.956;2023-06-10T12:15:36;5.75;;;3.85;;
13698;SDS011;6921;53.642;9.956;2023-06-10T12:17:42;5.72;;;3.80;;
13698;SDS011;6921;53.642;9.956;2023-06-10T12:19:46;5.57;;;3.60;;
13698;SDS011;6921;53.642;9.956;2023-06-10T12:21:50;7.15;;;3.92;;
13698;SDS011;6921;53.642;9.956;2023-06-10T12:24:02;5.90;;;3.85;;
13698;SDS011;6921;53.642;9.956;2023-06-10T12:26:09;6.50;;;4.13;;
13698;SDS011;6921;53.642;9.956;2023-06-10T12:28:13;6.35;;;4.00;;
13698;SDS011;6921;53.642;9.956;2023-06-10T12:30:20;5.35;;;3.65;;
13698;SDS011;6921;53.642;9.956;2023-06-10T12:32:38;5.78;;;3.90;;
13698;SDS011;6921;53.642;9.956;2023-06-10T12:34:43;6.93;;;3.90;;
13698;SDS011;6921;53.642;9.956;2023-06-10T12:37:10;6.80;;;3.55;;
13698;SDS011;6921;53.642;9.956;2023-06-10T12:39:20;8.00;;;3.97;;
13698;SDS011;6921;53.642;9.956;2023-06-10T12:41:27;5.53;;;3.97;;
13698;SDS011;6921;53.642;9.956;2023-06-10T12:43:33;6.68;;;3.80;;
13698;SDS011;6921;53.642;9.956;2023-06-10T12:45:38;6.10;;;3.83;;
13698;SDS011;6921;53.642;9.956;2023-06-10T12:47:47;8.07;;;4.18;;
13698;SDS011;6921;53.642;9.956;2023-06-10T12:49:51;6.57;;;4.20;;
13698;SDS011;6921;53.642;9.956;2023-06-10T12:51:54;5.40;;;3.60;;
13698;SDS011;6921;53.642;9.956;2023-06-10T12:53:58;6.25;;;3.90;;